Sugar Grove Lake, Ohio
Current Conditions -  °F | °C
As of 10:53 PM on Friday 28 Nov 2014 (Local Time) from KMNN Reporting Station
Scattered Clouds Scattered Clouds  
Wind Chill: 20°   Ceiling: Unl
Heat Index: 30°   Visibility: 10mi
Dew Point: 19°   Wind: 13mph
Humidity: 64%   Direction: 180°S
Pressure: 30.1"   Gusts: NA
Location:  40.712°N, 82.796°W
Report Text: KMNN 290353Z AUTO 18011KT 10SM SCT110 M01/M07 A3010 RMK AO2 SLP206 T10111072 TSNO
Loading
Personal Weather Stations






























Interactive Weather Map New forecast layout! Learn more

10-Day Weather Forecast

Advertisements
Track Severe Weather on mobile